SCSE/LSC METAR and TAF weather

Enter ICAO airport designator
Station Type Date Time Source
SCSE METAR 2020/04/03 22:00 UTC NOAA

SCSE 032200Z 26008KT 9999 FEW015 17/13 Q1010


Station Type Date Time Source
SCSE Decoded METAR 2020/04/03 22:00 UTC NOAA

La Serena, Chile (SCSE) 29-54S 071-12W
Apr 03, 2020 - 06:00 PM EDT / 2020.04.03 2200 UTC
Wind: from the W (260 degrees) at 9 MPH (8 KT):0
Visibility: greater than 7 mile(s):0
Sky conditions: mostly clear
Temperature: 62 F (17 C)
Dew Point: 55 F (13 C)
Relative Humidity: 77%
Pressure (altimeter): 29.83 in. Hg (1010 hPa)
ob: SCSE 032200Z 26008KT 9999 FEW015 17/13 Q1010
cycle: 22

Station Type Date Time Source
SCSE TAF 2020/04/03 18:03 UTC NOAA

TAF TAF SCSE 031629Z 0318/0418 28010KT 9999 BKN015 TX20/0318Z TN13/0411Z
TEMPO 0319/0323 SCT020
BECMG 0402/0404 24004KT BKN015
TEMPO 0409/0413 12004KT 5000 -DZ BKN005 OVC010
BECMG 0415/0417 29010KT BKN019

Example: see airport list